createdAt,value
2023-04-10T00:01:12.282Z,4.94
2023-04-10T00:03:41.535Z,4.90
2023-04-10T00:06:11.879Z,4.89
2023-04-10T00:08:40.091Z,4.88
2023-04-10T00:11:08.680Z,4.81
2023-04-10T00:13:36.823Z,4.75
2023-04-10T00:16:05.352Z,4.67
2023-04-10T00:18:34.119Z,4.55
2023-04-10T00:21:04.114Z,4.60
2023-04-10T00:23:35.145Z,4.48
2023-04-10T00:26:03.384Z,4.34
2023-04-10T00:28:31.931Z,4.24
2023-04-10T00:31:00.434Z,4.14
2023-04-10T00:33:28.680Z,4.16
2023-04-10T00:35:57.096Z,4.23
2023-04-10T00:38:25.343Z,4.13
2023-04-10T00:40:55.408Z,4.02
2023-04-10T00:43:24.498Z,3.81
2023-04-10T00:45:59.994Z,3.76
2023-04-10T00:48:28.635Z,3.68
2023-04-10T00:50:56.855Z,3.61
2023-04-10T00:53:25.017Z,3.51
2023-04-10T00:55:56.031Z,3.42
2023-04-10T00:58:24.505Z,3.34
2023-04-10T01:00:52.894Z,3.42
2023-04-10T01:03:22.834Z,3.43
2023-04-10T01:06:00.763Z,3.44
2023-04-10T01:08:37.897Z,3.45
2023-04-10T01:11:14.875Z,3.46
2023-04-10T01:13:51.959Z,3.52
2023-04-10T01:16:26.227Z,3.59
2023-04-10T01:19:02.271Z,3.82
2023-04-10T01:21:32.607Z,3.86
2023-04-10T01:24:18.000Z,4.00
2023-04-10T01:27:03.140Z,4.01
2023-04-10T01:29:35.939Z,4.08
2023-04-10T01:32:09.562Z,4.13
2023-04-10T01:34:42.401Z,4.14
2023-04-10T01:37:17.458Z,4.14
2023-04-10T01:39:51.518Z,4.23
2023-04-10T01:42:22.332Z,4.23
2023-04-10T01:44:55.051Z,4.32
2023-04-10T01:47:25.659Z,4.37
2023-04-10T01:49:54.923Z,4.31
2023-04-10T01:52:25.136Z,4.24
2023-04-10T01:55:04.712Z,4.20
2023-04-10T01:57:40.451Z,4.03
2023-04-10T02:00:12.403Z,3.95
2023-04-10T02:02:44.256Z,3.96
2023-04-10T02:05:12.843Z,3.95
2023-04-10T02:07:46.809Z,4.03
2023-04-10T02:10:23.719Z,4.05
2023-04-10T02:12:56.626Z,4.00
2023-04-10T02:15:30.238Z,3.99
2023-04-10T02:18:00.968Z,4.08
2023-04-10T02:20:30.054Z,4.04
2023-04-10T02:23:02.373Z,4.01
2023-04-10T02:25:33.014Z,4.07
2023-04-10T02:28:05.310Z,4.16
2023-04-10T02:30:35.937Z,4.16
2023-04-10T02:33:04.608Z,4.14
2023-04-10T02:35:34.817Z,4.16
2023-04-10T02:38:04.852Z,4.16
2023-04-10T02:40:38.055Z,4.10
2023-04-10T02:43:13.574Z,4.10
2023-04-10T02:45:43.929Z,4.07
2023-04-10T02:48:15.365Z,3.98
2023-04-10T02:50:46.547Z,3.92
2023-04-10T02:53:15.525Z,3.88
2023-04-10T02:55:43.707Z,3.92
2023-04-10T02:58:13.802Z,4.02
2023-04-10T03:00:49.505Z,4.00
2023-04-10T03:03:24.134Z,4.14
2023-04-10T03:05:55.805Z,4.11
2023-04-10T03:08:30.444Z,4.11
2023-04-10T03:10:58.650Z,4.19
2023-04-10T03:13:27.037Z,4.14
2023-04-10T03:15:56.965Z,4.14
2023-04-10T03:18:25.508Z,4.10
2023-04-10T03:20:56.191Z,4.16
2023-04-10T03:23:25.068Z,4.12
2023-04-10T03:25:55.359Z,3.98
2023-04-10T03:28:30.002Z,3.91
2023-04-10T03:31:00.671Z,3.87
2023-04-10T03:33:30.279Z,3.81
2023-04-10T03:35:59.300Z,3.77
2023-04-10T03:38:28.053Z,3.67
2023-04-10T03:40:56.593Z,3.64
2023-04-10T03:43:27.203Z,3.60
2023-04-10T03:45:55.748Z,3.62
2023-04-10T03:48:28.350Z,3.61
2023-04-10T03:50:56.882Z,3.68
2023-04-10T03:53:25.222Z,3.56
2023-04-10T03:55:55.076Z,3.50
2023-04-10T03:58:25.445Z,3.48
2023-04-10T04:00:55.738Z,3.49
2023-04-10T04:03:38.034Z,3.38
2023-04-10T04:06:24.870Z,3.29
2023-04-10T04:09:08.181Z,3.24
2023-04-10T04:11:43.152Z,3.24
2023-04-10T04:14:29.073Z,3.25
2023-04-10T04:17:12.529Z,3.19
2023-04-10T04:20:21.045Z,3.20
2023-04-10T04:23:09.902Z,3.16
2023-04-10T04:26:04.700Z,3.11
2023-04-10T04:28:57.154Z,3.11
2023-04-10T04:31:44.105Z,3.09
2023-04-10T04:34:34.647Z,3.25
2023-04-10T04:37:14.576Z,3.34
2023-04-10T04:39:58.758Z,3.26
2023-04-10T04:42:45.837Z,3.29
2023-04-10T04:45:27.561Z,3.35
2023-04-10T04:48:16.254Z,3.43
2023-04-10T04:51:02.653Z,3.58
2023-04-10T04:53:43.453Z,3.60
2023-04-10T04:56:32.166Z,3.63
2023-04-10T04:59:20.542Z,3.70
2023-04-10T05:02:27.431Z,3.93
2023-04-10T05:05:22.316Z,4.13
2023-04-10T05:08:16.112Z,4.24
2023-04-10T05:11:09.257Z,4.20
2023-04-10T05:14:15.610Z,4.26
2023-04-10T05:17:10.596Z,4.37
2023-04-10T05:19:57.996Z,4.60
2023-04-10T05:23:01.705Z,4.80
2023-04-10T05:25:56.615Z,4.84
2023-04-10T05:28:46.847Z,4.96
2023-04-10T05:31:44.143Z,5.14
2023-04-10T05:34:17.228Z,5.18
2023-04-10T05:37:14.858Z,5.22
2023-04-10T05:40:12.619Z,5.29
2023-04-10T05:43:19.097Z,5.42
2023-04-10T05:46:08.074Z,5.62
2023-04-10T05:49:11.617Z,5.80
2023-04-10T05:51:54.515Z,5.86
2023-04-10T05:54:38.968Z,6.04
2023-04-10T05:57:19.870Z,6.17
2023-04-10T06:00:02.479Z,6.13
2023-04-10T06:02:52.809Z,6.22
2023-04-10T06:05:26.532Z,6.25
2023-04-10T06:08:00.635Z,6.41
2023-04-10T06:10:30.730Z,6.40
2023-04-10T06:12:59.464Z,6.36
2023-04-10T06:15:27.942Z,6.18
2023-04-10T06:17:58.272Z,6.03
2023-04-10T06:20:26.527Z,5.97
2023-04-10T06:22:55.135Z,6.20
2023-04-10T06:25:23.439Z,6.50
2023-04-10T06:27:51.972Z,6.92
2023-04-10T06:30:20.099Z,7.22
2023-04-10T06:32:48.591Z,7.72
2023-04-10T06:35:19.364Z,8.21
2023-04-10T06:37:47.746Z,8.63
2023-04-10T06:40:17.183Z,8.49
2023-04-10T06:42:45.454Z,8.37
2023-04-10T06:45:17.355Z,8.29
2023-04-10T06:47:45.792Z,7.93
2023-04-10T06:50:14.085Z,7.42
2023-04-10T06:52:46.085Z,7.54
2023-04-10T06:55:14.341Z,7.91
2023-04-10T06:57:42.679Z,8.29
2023-04-10T07:00:12.407Z,8.75
2023-04-10T07:02:40.834Z,9.11
2023-04-10T07:05:10.338Z,11.54
2023-04-10T07:07:38.835Z,15.08
2023-04-10T07:10:10.346Z,16.19
2023-04-10T07:12:38.629Z,16.93
2023-04-10T07:15:08.973Z,17.93
2023-04-10T07:17:37.437Z,17.46
2023-04-10T07:20:07.165Z,20.51
2023-04-10T07:22:39.501Z,20.04
2023-04-10T07:25:11.380Z,22.56
2023-04-10T07:27:42.684Z,23.66
2023-04-10T07:30:13.933Z,25.54
2023-04-10T07:32:45.583Z,26.20
2023-04-10T07:35:19.034Z,22.11
2023-04-10T07:37:52.873Z,20.53
2023-04-10T07:40:24.138Z,23.34
2023-04-10T07:42:54.779Z,21.49
2023-04-10T07:45:29.692Z,20.70
2023-04-10T07:48:00.084Z,24.25
2023-04-10T07:50:29.439Z,24.63
2023-04-10T07:52:57.916Z,23.01
2023-04-10T07:55:28.733Z,21.69
2023-04-10T07:57:57.373Z,23.54
2023-04-10T08:00:26.196Z,22.37
2023-04-10T08:02:54.829Z,23.66
2023-04-10T08:05:23.048Z,24.38
2023-04-10T08:07:51.526Z,20.86
2023-04-10T08:10:20.075Z,22.68
2023-04-10T08:12:50.253Z,23.23
2023-04-10T08:15:19.065Z,21.31
2023-04-10T08:17:47.211Z,21.27
2023-04-10T08:20:15.638Z,19.14
2023-04-10T08:22:43.852Z,18.56
2023-04-10T08:25:12.397Z,20.49
2023-04-10T08:27:41.075Z,23.35
2023-04-10T08:30:11.815Z,25.57
2023-04-10T08:32:40.370Z,23.02
2023-04-10T08:35:09.665Z,19.20
2023-04-10T08:37:38.629Z,19.99
2023-04-10T08:40:07.733Z,22.06
2023-04-10T08:42:37.600Z,23.77
2023-04-10T08:45:08.619Z,20.63
2023-04-10T08:47:42.331Z,19.59
2023-04-10T08:50:14.403Z,19.91
2023-04-10T08:52:45.249Z,21.39
2023-04-10T08:55:15.142Z,19.05
2023-04-10T08:57:54.103Z,20.34
2023-04-10T09:00:31.784Z,20.34
2023-04-10T09:03:05.158Z,18.21
2023-04-10T09:05:41.947Z,21.21
2023-04-10T09:08:12.406Z,23.16
2023-04-10T09:10:41.007Z,21.26
2023-04-10T09:13:09.084Z,19.00
2023-04-10T09:15:58.399Z,15.90
2023-04-10T09:18:42.333Z,17.99
2023-04-10T09:21:11.901Z,17.62
2023-04-10T09:23:40.197Z,18.26
2023-04-10T09:26:25.864Z,20.19
2023-04-10T09:29:02.685Z,20.07
2023-04-10T09:31:33.722Z,21.22
2023-04-10T09:34:13.243Z,22.48
2023-04-10T09:36:42.772Z,22.09
2023-04-10T09:39:12.094Z,17.85
2023-04-10T09:41:51.908Z,17.08
2023-04-10T09:44:31.415Z,20.14
2023-04-10T09:47:00.700Z,20.49
2023-04-10T09:49:31.028Z,18.06
2023-04-10T09:52:02.668Z,16.81
2023-04-10T09:54:39.012Z,17.10
2023-04-10T09:57:10.701Z,18.09
2023-04-10T09:59:47.758Z,18.62
2023-04-10T10:02:19.912Z,19.12
2023-04-10T10:04:52.550Z,18.96
2023-04-10T10:07:24.176Z,19.59
2023-04-10T10:09:55.597Z,17.33
2023-04-10T10:12:31.140Z,16.82
2023-04-10T10:15:04.051Z,19.20
2023-04-10T10:17:38.633Z,19.36
2023-04-10T10:20:11.752Z,17.30
2023-04-10T10:22:41.495Z,17.62
2023-04-10T10:25:11.004Z,18.04
2023-04-10T10:27:41.134Z,18.08
2023-04-10T10:30:28.070Z,18.43
2023-04-10T10:33:00.143Z,19.91
2023-04-10T10:35:32.777Z,18.93
2023-04-10T10:38:02.892Z,18.60
2023-04-10T10:40:34.752Z,18.16
2023-04-10T10:43:10.563Z,18.56
2023-04-10T10:45:45.444Z,17.26
2023-04-10T10:48:15.494Z,16.55
2023-04-10T10:50:57.429Z,17.47
2023-04-10T10:53:37.989Z,18.80
2023-04-10T10:56:37.893Z,18.64
2023-04-10T10:59:06.128Z,15.91
2023-04-10T11:01:34.544Z,16.12
2023-04-10T11:04:42.646Z,17.72
2023-04-10T11:07:13.363Z,18.88
2023-04-10T11:09:52.574Z,17.31
2023-04-10T11:12:26.124Z,16.88
2023-04-10T11:14:59.760Z,17.38
2023-04-10T11:17:58.364Z,17.64
2023-04-10T11:20:27.857Z,17.60
2023-04-10T11:23:11.911Z,16.99
2023-04-10T11:25:49.522Z,15.03
2023-04-10T11:28:38.229Z,15.86
2023-04-10T11:31:19.786Z,16.44
2023-04-10T11:33:48.884Z,15.35
2023-04-10T11:36:18.628Z,14.20
2023-04-10T11:38:59.469Z,14.30
2023-04-10T11:41:30.500Z,13.85
2023-04-10T11:43:59.323Z,13.53
2023-04-10T11:46:27.640Z,13.46
2023-04-10T11:48:57.402Z,13.97
2023-04-10T11:51:27.373Z,13.85
2023-04-10T11:54:08.137Z,13.66
2023-04-10T11:56:37.903Z,14.22
2023-04-10T11:59:10.975Z,14.06
2023-04-10T12:01:42.713Z,14.97
2023-04-10T12:04:18.712Z,14.76
2023-04-10T12:06:48.537Z,15.02
2023-04-10T12:09:19.674Z,15.66
2023-04-10T12:11:53.082Z,15.94
2023-04-10T12:14:22.303Z,15.52
2023-04-10T12:16:51.690Z,14.97
2023-04-10T12:19:20.771Z,15.30
2023-04-10T12:21:49.601Z,15.47
2023-04-10T12:24:43.515Z,16.16
2023-04-10T12:27:17.826Z,16.45
2023-04-10T12:29:46.456Z,16.44
2023-04-10T12:32:15.128Z,15.73
2023-04-10T12:34:43.787Z,15.19
2023-04-10T12:37:11.868Z,15.94
2023-04-10T12:39:40.136Z,16.39
2023-04-10T12:42:17.577Z,15.40
2023-04-10T12:44:53.200Z,14.55
2023-04-10T12:47:21.661Z,14.81
2023-04-10T12:50:04.574Z,16.00
2023-04-10T12:52:33.033Z,15.28
2023-04-10T12:55:11.673Z,14.71
2023-04-10T12:57:42.488Z,14.61
2023-04-10T13:00:13.027Z,14.69
2023-04-10T13:02:42.540Z,14.62
2023-04-10T13:05:12.111Z,14.42
2023-04-10T13:07:41.247Z,14.69
2023-04-10T13:10:10.746Z,15.20
2023-04-10T13:12:40.201Z,14.98
2023-04-10T13:15:10.850Z,15.40
2023-04-10T13:17:40.965Z,15.21
2023-04-10T13:20:11.317Z,14.58
2023-04-10T13:22:39.475Z,14.35
2023-04-10T13:25:08.257Z,13.83
2023-04-10T13:27:36.385Z,14.02
2023-04-10T13:30:06.241Z,13.81
2023-04-10T13:32:36.149Z,13.86
2023-04-10T13:35:04.690Z,14.47
2023-04-10T13:37:32.780Z,15.44
2023-04-10T13:40:00.973Z,15.80
2023-04-10T13:42:29.129Z,14.63
2023-04-10T13:44:57.171Z,14.17
2023-04-10T13:47:25.281Z,13.79
2023-04-10T13:49:55.416Z,14.15
2023-04-10T13:52:23.765Z,14.74
2023-04-10T13:54:52.246Z,15.79
2023-04-10T13:57:20.457Z,15.09
2023-04-10T13:59:48.636Z,15.21
2023-04-10T14:02:17.746Z,15.56
2023-04-10T14:04:47.551Z,15.50
2023-04-10T14:07:17.182Z,15.92
2023-04-10T14:09:46.378Z,16.40
2023-04-10T14:12:16.421Z,15.20
2023-04-10T14:14:46.650Z,15.35
2023-04-10T14:17:14.880Z,15.76
2023-04-10T14:19:43.367Z,15.62
2023-04-10T14:22:11.536Z,15.22
2023-04-10T14:24:40.879Z,15.52
2023-04-10T14:27:11.534Z,15.78
2023-04-10T14:29:50.632Z,16.03
2023-04-10T14:32:22.936Z,15.44
2023-04-10T14:34:51.135Z,15.34
2023-04-10T14:37:19.827Z,15.99
2023-04-10T14:39:49.302Z,15.59
2023-04-10T14:42:17.558Z,15.32
2023-04-10T14:44:45.756Z,15.33
2023-04-10T14:47:14.442Z,15.32
2023-04-10T14:49:42.979Z,15.74
2023-04-10T14:52:11.233Z,16.37
2023-04-10T14:54:39.283Z,16.75
2023-04-10T14:57:10.037Z,16.43
2023-04-10T14:59:38.427Z,16.48
2023-04-10T15:02:06.955Z,15.56
2023-04-10T15:04:35.380Z,15.60
2023-04-10T15:07:03.645Z,15.04
2023-04-10T15:09:31.812Z,15.05
2023-04-10T15:11:59.931Z,14.89
2023-04-10T15:14:30.101Z,14.81
2023-04-10T15:16:58.370Z,15.21
2023-04-10T15:19:26.752Z,14.91
2023-04-10T15:21:55.848Z,14.81
2023-04-10T15:24:24.399Z,14.91
2023-04-10T15:26:53.601Z,14.68
2023-04-10T15:29:21.953Z,14.73
2023-04-10T15:31:51.964Z,14.96
2023-04-10T15:34:20.549Z,14.26
2023-04-10T15:36:48.758Z,13.88
2023-04-10T15:39:17.405Z,13.93
2023-04-10T15:41:45.704Z,14.14
2023-04-10T15:44:14.164Z,14.54
2023-04-10T15:46:42.456Z,13.92
2023-04-10T15:49:12.139Z,14.10
2023-04-10T15:51:41.241Z,14.06
2023-04-10T15:54:11.008Z,14.00
2023-04-10T15:56:40.807Z,14.08
2023-04-10T15:59:09.330Z,13.68
2023-04-10T16:01:37.744Z,13.92
2023-04-10T16:04:06.400Z,13.37
2023-04-10T16:06:36.127Z,13.69
2023-04-10T16:09:12.452Z,13.38
2023-04-10T16:11:51.409Z,13.14
2023-04-10T16:14:20.088Z,13.31
2023-04-10T16:16:48.290Z,13.26
2023-04-10T16:19:16.708Z,13.18
2023-04-10T16:21:46.531Z,13.86
2023-04-10T16:24:15.105Z,12.99
2023-04-10T16:26:43.403Z,12.72
2023-04-10T16:29:11.562Z,12.70
2023-04-10T16:31:40.431Z,12.59
2023-04-10T16:34:08.772Z,12.80
2023-04-10T16:36:37.042Z,12.10
2023-04-10T16:39:07.966Z,12.09
2023-04-10T16:41:42.996Z,11.79
2023-04-10T16:44:11.367Z,11.55
2023-04-10T16:46:39.841Z,11.66
2023-04-10T16:49:08.482Z,11.56
2023-04-10T16:51:36.755Z,11.46
2023-04-10T16:54:06.744Z,11.59
2023-04-10T16:56:34.927Z,11.43
2023-04-10T16:59:03.333Z,11.32
2023-04-10T17:01:32.177Z,11.14
2023-04-10T17:04:01.068Z,11.03
2023-04-10T17:06:29.295Z,11.02
2023-04-10T17:08:58.121Z,11.04
2023-04-10T17:11:29.504Z,10.98
2023-04-10T17:13:58.567Z,11.15
2023-04-10T17:16:27.516Z,11.20
2023-04-10T17:18:56.019Z,11.07
2023-04-10T17:21:47.364Z,11.11
2023-04-10T17:24:15.676Z,11.10
2023-04-10T17:26:45.601Z,10.83
2023-04-10T17:29:13.781Z,10.62
2023-04-10T17:31:42.786Z,10.33
2023-04-10T17:34:11.193Z,10.26
2023-04-10T17:36:39.860Z,10.13
2023-04-10T17:39:08.279Z,10.17
2023-04-10T17:41:36.747Z,10.10
2023-04-10T17:44:06.451Z,9.99
2023-04-10T17:46:35.116Z,9.94
2023-04-10T17:49:03.723Z,9.88
2023-04-10T17:51:32.752Z,9.84
2023-04-10T17:54:01.359Z,9.73
2023-04-10T17:56:30.738Z,9.67
2023-04-10T17:59:00.693Z,9.52
2023-04-10T18:01:31.258Z,9.36
2023-04-10T18:04:00.360Z,9.31
2023-04-10T18:06:28.666Z,9.28
2023-04-10T18:08:57.860Z,9.00
2023-04-10T18:11:26.248Z,8.91
2023-04-10T18:13:55.644Z,8.53
2023-04-10T18:16:23.837Z,8.40
2023-04-10T18:18:54.158Z,8.37
2023-04-10T18:21:22.796Z,8.34
2023-04-10T18:23:51.297Z,8.32
2023-04-10T18:26:21.037Z,8.30
2023-04-10T18:28:49.756Z,8.30
2023-04-10T18:31:19.168Z,8.30
2023-04-10T18:33:56.184Z,8.34
2023-04-10T18:36:33.860Z,8.31
2023-04-10T18:39:02.456Z,8.33
2023-04-10T18:41:30.415Z,8.37
2023-04-10T18:44:04.814Z,8.40
2023-04-10T18:46:34.492Z,8.51
2023-04-10T18:49:03.364Z,8.30
2023-04-10T18:51:35.602Z,8.10
2023-04-10T18:54:04.146Z,8.25
2023-04-10T18:56:32.703Z,8.10
2023-04-10T18:59:01.192Z,8.16
2023-04-10T19:01:29.340Z,8.12
2023-04-10T19:03:57.814Z,8.05
2023-04-10T19:06:26.986Z,7.97
2023-04-10T19:08:56.811Z,7.87
2023-04-10T19:11:25.754Z,7.86
2023-04-10T19:13:54.612Z,7.71
2023-04-10T19:16:23.085Z,7.89
2023-04-10T19:18:51.403Z,7.73
2023-04-10T19:21:19.892Z,7.74
2023-04-10T19:23:48.196Z,7.66
2023-04-10T19:26:20.205Z,7.73
2023-04-10T19:28:48.407Z,7.59
2023-04-10T19:31:17.103Z,7.58
2023-04-10T19:33:46.311Z,7.54
2023-04-10T19:36:16.942Z,7.54
2023-04-10T19:38:48.949Z,7.52
2023-04-10T19:41:19.168Z,7.48
2023-04-10T19:43:48.148Z,7.51
2023-04-10T19:46:18.079Z,7.37
2023-04-10T19:48:46.655Z,7.29
2023-04-10T19:51:14.707Z,7.16
2023-04-10T19:53:43.188Z,7.29
2023-04-10T19:56:11.589Z,7.32
2023-04-10T19:58:42.153Z,7.44
2023-04-10T20:01:11.998Z,7.42
2023-04-10T20:03:40.739Z,7.47
2023-04-10T20:06:10.163Z,7.55
2023-04-10T20:08:38.746Z,7.60
2023-04-10T20:11:07.402Z,7.72
2023-04-10T20:13:35.921Z,7.83
2023-04-10T20:16:05.681Z,7.81
2023-04-10T20:18:33.961Z,7.79
2023-04-10T20:21:02.112Z,7.81
2023-04-10T20:23:30.237Z,7.78
2023-04-10T20:25:59.005Z,7.69
2023-04-10T20:28:27.029Z,7.72
2023-04-10T20:30:55.183Z,7.72
2023-04-10T20:33:24.560Z,7.70
2023-04-10T20:35:54.187Z,7.80
2023-04-10T20:38:22.592Z,7.74
2023-04-10T20:40:50.983Z,7.67
2023-04-10T20:43:19.072Z,7.81
2023-04-10T20:45:47.667Z,8.00
2023-04-10T20:48:16.066Z,8.05
2023-04-10T20:50:49.479Z,8.05
2023-04-10T20:53:17.675Z,7.95
2023-04-10T20:55:46.036Z,7.95
2023-04-10T20:58:14.402Z,7.90
2023-04-10T21:00:42.935Z,7.93
2023-04-10T21:03:11.399Z,7.85
2023-04-10T21:05:41.576Z,7.88
2023-04-10T21:08:13.002Z,7.83
2023-04-10T21:10:44.314Z,7.84
2023-04-10T21:13:14.164Z,7.93
2023-04-10T21:15:43.027Z,7.94
2023-04-10T21:18:12.359Z,7.90
2023-04-10T21:20:40.454Z,7.88
2023-04-10T21:23:10.305Z,7.87
2023-04-10T21:25:40.066Z,8.01
2023-04-10T21:28:08.650Z,8.02
2023-04-10T21:30:36.809Z,8.07
2023-04-10T21:33:05.139Z,8.07
2023-04-10T21:35:33.490Z,8.04
2023-04-10T21:38:02.680Z,8.09
2023-04-10T21:40:34.530Z,8.21
2023-04-10T21:43:02.889Z,8.09
2023-04-10T21:45:30.871Z,8.11
2023-04-10T21:48:00.516Z,8.10
2023-04-10T21:50:28.825Z,8.09
2023-04-10T21:52:57.546Z,8.12
2023-04-10T21:55:25.671Z,8.08
2023-04-10T21:57:55.080Z,8.04
2023-04-10T22:00:23.305Z,8.13
2023-04-10T22:02:52.212Z,8.13
2023-04-10T22:05:24.571Z,8.24
2023-04-10T22:07:53.266Z,8.16
2023-04-10T22:10:21.844Z,8.21
2023-04-10T22:12:50.096Z,8.25
2023-04-10T22:15:19.743Z,8.25
2023-04-10T22:17:47.875Z,8.36
2023-04-10T22:20:15.897Z,8.42
2023-04-10T22:22:44.334Z,8.28
2023-04-10T22:25:12.664Z,8.31
2023-04-10T22:27:40.754Z,8.24
2023-04-10T22:30:10.805Z,8.12
2023-04-10T22:32:40.347Z,8.16
2023-04-10T22:35:09.447Z,8.12
2023-04-10T22:37:37.666Z,8.10
2023-04-10T22:40:07.289Z,8.07
2023-04-10T22:42:35.475Z,8.10
2023-04-10T22:45:03.702Z,8.01
2023-04-10T22:47:32.352Z,7.95
2023-04-10T22:50:02.198Z,7.91
2023-04-10T22:52:30.527Z,7.84
2023-04-10T22:54:58.691Z,7.82
2023-04-10T22:57:27.090Z,7.74
2023-04-10T22:59:55.402Z,7.82
2023-04-10T23:02:23.724Z,7.86
2023-04-10T23:04:52.146Z,7.74
2023-04-10T23:07:21.604Z,7.72
2023-04-10T23:09:49.636Z,7.67
2023-04-10T23:12:17.698Z,7.93
2023-04-10T23:14:45.855Z,7.91
2023-04-10T23:17:14.156Z,7.74
2023-04-10T23:19:42.433Z,7.62
2023-04-10T23:22:10.787Z,7.44
2023-04-10T23:24:40.406Z,7.28
2023-04-10T23:27:08.703Z,7.31
2023-04-10T23:29:36.975Z,7.19
2023-04-10T23:32:05.934Z,7.48
2023-04-10T23:34:34.022Z,7.62
2023-04-10T23:37:02.120Z,7.58
2023-04-10T23:39:30.151Z,7.63
2023-04-10T23:42:00.502Z,7.69
2023-04-10T23:44:28.631Z,7.61
2023-04-10T23:46:56.857Z,7.74
2023-04-10T23:49:24.986Z,7.64
2023-04-10T23:51:52.976Z,7.55
2023-04-10T23:54:21.144Z,7.63
2023-04-10T23:56:49.662Z,7.79
2023-04-10T23:59:19.413Z,7.91
